Time;durP1;ratioP1;P1;durP2;ratioP2;P2;SDS_P1;SDS_P2;PMS_P1;PMS_P2;Temp;Humidity;BMP_temperature;BMP_pressure;BME280_temperature;BME280_humidity;BME280_pressure;Samples;Min_cycle;Max_cycle;Signal;HPM_P1;HPM_P2
2022/12/26 00:01:25;;;;;;;12.50;8.70;;;;;;;10.69;65.71;101315.64;106142;1303;21954;-64
2022/12/26 00:03:52;;;;;;;13.90;10.30;;;;;;;10.68;65.71;101320.73;106202;1301;21956;-65
2022/12/26 00:06:20;;;;;;;13.80;9.70;;;;;;;10.67;65.61;101328.79;106267;1303;22679;-65
2022/12/26 00:08:46;;;;;;;14.90;9.80;;;;;;;10.67;65.56;101329.67;106235;1303;21973;-63
2022/12/26 00:11:11;;;;;;;12.90;9.20;;;;;;;10.61;65.69;101329.31;106186;1296;21954;-63
2022/12/26 00:13:39;;;;;;;14.80;10.40;;;;;;;10.64;65.71;101335.12;106133;1303;21972;-63
2022/12/26 00:16:15;;;;;;;13.90;10.10;;;;;;;10.68;65.45;101338.29;106252;1303;22020;-64
2022/12/26 00:18:42;;;;;;;13.50;9.70;;;;;;;10.71;65.30;101337.41;106212;1303;21951;-64
2022/12/26 00:21:09;;;;;;;13.50;10.00;;;;;;;10.77;65.39;101343.40;106180;1303;21987;-63
2022/12/26 00:23:34;;;;;;;13.80;10.40;;;;;;;10.79;65.37;101348.31;106162;1303;21948;-63
2022/12/26 00:26:08;;;;;;;16.30;11.10;;;;;;;10.82;65.32;101350.95;106246;1303;21959;-63
2022/12/26 00:28:33;;;;;;;14.40;10.20;;;;;;;10.84;65.31;101354.29;106210;1303;22035;-64
2022/12/26 00:31:07;;;;;;;14.90;10.40;;;;;;;10.84;64.86;101349.90;106189;1303;21958;-64
2022/12/26 00:33:34;;;;;;;13.40;10.10;;;;;;;10.87;64.99;101344.98;106285;1301;21959;-63
2022/12/26 00:36:01;;;;;;;13.70;10.10;;;;;;;10.89;64.93;101345.70;106330;1303;21965;-64
2022/12/26 00:38:30;;;;;;;15.00;10.80;;;;;;;10.87;64.60;101348.15;104816;1303;1002850;-63
2022/12/26 00:40:59;;;;;;;12.20;9.30;;;;;;;10.88;64.84;101355.17;106235;1303;21961;-63
2022/12/26 00:43:25;;;;;;;14.70;9.70;;;;;;;10.90;64.98;101357.81;106272;1302;21956;-63
2022/12/26 00:45:51;;;;;;;14.30;10.60;;;;;;;10.93;64.56;101363.97;106228;1303;21960;-64
2022/12/26 00:48:17;;;;;;;14.30;9.60;;;;;;;10.90;64.71;101367.83;106229;1303;21957;-64
2022/12/26 00:50:43;;;;;;;14.80;9.90;;;;;;;10.89;64.57;101370.46;106174;1303;21954;-64
2022/12/26 00:53:09;;;;;;;13.40;9.50;;;;;;;10.89;64.45;101371.16;106177;1303;21954;-64
2022/12/26 00:55:35;;;;;;;13.50;10.30;;;;;;;10.85;64.36;101370.27;106172;1303;22110;-65
2022/12/26 00:58:01;;;;;;;14.30;9.90;;;;;;;10.78;64.56;101371.66;106178;1303;21955;-63
2022/12/26 01:00:27;;;;;;;13.80;9.70;;;;;;;10.79;64.57;101372.55;106179;1303;21969;-64
2022/12/26 01:02:53;;;;;;;12.60;9.90;;;;;;;10.65;64.95;101369.69;106193;1303;21962;-63
2022/12/26 01:05:18;;;;;;;13.60;10.20;;;;;;;10.74;64.75;101364.98;106325;1301;21957;-64
2022/12/26 01:07:44;;;;;;;12.30;9.50;;;;;;;10.80;64.53;101364.13;106248;1301;21961;-64
2022/12/26 01:10:11;;;;;;;15.50;10.00;;;;;;;10.80;64.42;101361.67;106154;1303;22011;-63
2022/12/26 01:12:38;;;;;;;14.90;10.40;;;;;;;10.82;64.38;101363.95;106235;1303;21965;-63
2022/12/26 01:15:04;;;;;;;13.20;10.40;;;;;;;10.81;64.37;101363.25;106238;1303;21972;-64
2022/12/26 01:17:31;;;;;;;13.50;9.60;;;;;;;10.80;64.34;101359.04;106198;1303;21960;-63
2022/12/26 01:19:57;;;;;;;12.70;9.30;;;;;;;10.77;64.37;101354.46;106223;1303;21950;-64
2022/12/26 01:22:23;;;;;;;13.10;9.80;;;;;;;10.66;64.63;101355.65;106170;1303;21969;-63
2022/12/26 01:24:54;;;;;;;12.00;9.10;;;;;;;10.58;64.93;101358.61;106201;1303;21947;-64
2022/12/26 01:27:20;;;;;;;13.40;9.70;;;;;;;10.56;65.02;101361.95;106188;1303;21960;-63
2022/12/26 01:29:46;;;;;;;12.40;9.30;;;;;;;10.51;65.05;101364.36;106179;1303;21962;-64
2022/12/26 01:32:11;;;;;;;12.00;9.20;;;;;;;10.44;64.88;101363.64;106207;1303;22016;-64
2022/12/26 01:34:38;;;;;;;11.70;9.80;;;;;;;10.44;65.10;101361.71;106157;1303;21966;-65
2022/12/26 01:37:03;;;;;;;13.30;9.00;;;;;;;10.45;65.23;101367.52;106151;1298;21959;-64
2022/12/26 01:39:29;;;;;;;14.50;9.70;;;;;;;10.44;65.33;101366.45;106208;1303;21959;-65
2022/12/26 01:41:55;;;;;;;13.40;9.10;;;;;;;10.47;65.34;101370.67;106243;1303;21957;-64
2022/12/26 01:45:03;;;;;;;11.90;8.40;;;;;;;10.49;65.37;101371.91;106198;1303;22427;-64
2022/12/26 01:47:49;;;;;;;11.00;8.30;;;;;;;10.48;65.56;101378.76;106338;1302;22045;-63
2022/12/26 01:50:23;;;;;;;12.00;8.70;;;;;;;10.46;65.20;101386.46;106232;1303;21963;-64
2022/12/26 01:52:49;;;;;;;12.50;9.40;;;;;;;10.43;65.20;101389.60;106195;1303;21963;-64
2022/12/26 01:55:16;;;;;;;12.10;8.40;;;;;;;10.41;65.46;101389.43;106211;1303;21974;-64
2022/12/26 01:57:44;;;;;;;12.70;9.20;;;;;;;10.45;65.60;101389.62;106229;1303;21953;-63
2022/12/26 02:00:11;;;;;;;11.60;8.60;;;;;;;10.49;65.84;101377.70;106190;1298;21957;-65
2022/12/26 02:05:35;;;;;;;13.40;8.90;;;;;;;10.53;65.61;101371.41;106204;1303;21973;-63
2022/12/26 02:08:05;;;;;;;13.00;9.10;;;;;;;10.57;65.40;101374.06;106168;1303;21953;-63
2022/12/26 02:10:41;;;;;;;15.70;9.70;;;;;;;10.59;65.33;101373.20;106194;1295;22026;-64
2022/12/26 02:13:07;;;;;;;11.70;9.30;;;;;;;10.57;65.18;101377.73;106278;1303;21956;-64
2022/12/26 02:15:33;;;;;;;11.80;9.00;;;;;;;10.52;65.24;101380.71;105452;1304;1002554;-63
2022/12/26 02:18:00;;;;;;;13.60;9.40;;;;;;;10.46;65.36;101381.39;106155;1303;21973;-63
2022/12/26 02:20:27;;;;;;;14.80;10.50;;;;;;;10.34;65.29;101384.45;106215;1305;21957;-63
2022/12/26 02:23:21;;;;;;;14.80;10.90;;;;;;;10.28;65.29;101385.30;106352;1304;22062;-64
2022/12/26 02:25:59;;;;;;;14.80;10.30;;;;;;;10.28;65.50;101390.73;106231;1303;21956;-65
2022/12/26 02:28:57;;;;;;;14.80;10.80;;;;;;;10.26;65.57;101393.72;106177;1303;21962;-64
2022/12/26 02:31:45;;;;;;;14.20;11.00;;;;;;;10.26;65.62;101398.09;106154;1306;24392;-63
2022/12/26 02:34:49;;;;;;;14.40;9.90;;;;;;;10.28;65.47;101399.51;106169;1305;21957;-64
2022/12/26 02:37:37;;;;;;;15.30;10.40;;;;;;;10.34;65.13;101403.59;106160;1303;21973;-64
2022/12/26 02:40:18;;;;;;;14.60;10.00;;;;;;;10.38;65.32;101402.38;106154;1306;21967;-64
2022/12/26 02:42:51;;;;;;;15.50;10.70;;;;;;;10.45;65.22;101406.30;106287;1305;21957;-64
2022/12/26 02:48:28;;;;;;;15.60;10.40;;;;;;;10.38;64.89;101405.72;106292;1306;21968;-63
2022/12/26 03:14:25;;;;;;;12.90;9.20;;;;;;;10.01;66.53;101431.63;106173;1304;21957;-64
2022/12/26 03:19:56;;;;;;;12.40;8.40;;;;;;;9.96;66.83;101425.26;106196;1303;21970;-62
2022/12/26 03:22:30;;;;;;;11.70;8.60;;;;;;;9.91;66.95;101418.58;105987;1306;22026;-63
2022/12/26 03:27:43;;;;;;;13.80;9.40;;;;;;;9.94;66.91;101428.41;106165;1304;22003;-63
2022/12/26 03:32:55;;;;;;;12.60;8.20;;;;;;;9.93;66.66;101434.90;106105;1296;21954;-62
2022/12/26 03:35:21;;;;;;;13.30;8.60;;;;;;;9.90;66.57;101433.48;106267;1301;21955;-62
2022/12/26 03:37:53;;;;;;;12.50;8.30;;;;;;;9.89;66.71;101439.08;106247;1302;21954;-61
2022/12/26 04:46:33;;;;;;;9.80;6.20;;;;;;;9.96;65.50;101479.97;106390;1301;21974;-62
2022/12/26 04:51:43;;;;;;;15.30;6.80;;;;;;;10.01;65.98;101471.23;106208;1301;21998;-61
2022/12/26 04:54:09;;;;;;;9.40;6.50;;;;;;;10.05;65.84;101467.08;106396;1297;21992;-66
2022/12/26 04:56:35;;;;;;;8.30;5.70;;;;;;;10.06;65.69;101471.98;106230;1303;22044;-61
2022/12/26 04:59:00;;;;;;;16.80;6.90;;;;;;;10.03;65.43;101482.14;106229;1301;21959;-62
2022/12/26 05:09:43;;;;;;;11.80;6.00;;;;;;;9.81;64.99;101483.35;106132;1303;21995;-65
2022/12/26 05:12:09;;;;;;;14.20;6.20;;;;;;;9.79;65.02;101479.84;106392;1300;21949;-61
2022/12/26 05:14:35;;;;;;;10.00;6.20;;;;;;;9.76;65.02;101476.13;106452;1300;21953;-65
2022/12/26 05:30:49;;;;;;;25.20;17.10;;;;;;;9.11;62.96;101504.04;106301;1301;22180;-61
2022/12/26 05:36:00;;;;;;;17.10;11.00;;;;;;;8.76;62.62;101519.69;106224;1303;21966;-62
2022/12/26 05:38:26;;;;;;;11.70;7.00;;;;;;;8.67;62.99;101527.63;106410;1303;21968;-62
2022/12/26 05:40:52;;;;;;;13.60;7.40;;;;;;;8.65;63.12;101532.65;106274;1303;21982;-65
2022/12/26 05:43:18;;;;;;;10.20;6.50;;;;;;;8.59;62.98;101537.33;106243;1301;21960;-62
2022/12/26 05:45:44;;;;;;;16.40;8.50;;;;;;;8.52;62.89;101543.84;106331;1303;22231;-66
2022/12/26 05:48:10;;;;;;;12.70;7.60;;;;;;;8.39;63.16;101550.62;106225;1303;22840;-66
2022/12/26 05:50:35;;;;;;;12.60;7.10;;;;;;;8.43;63.39;101551.20;106354;1303;23646;-62
2022/12/26 05:53:02;;;;;;;13.60;6.40;;;;;;;8.47;63.68;101550.41;106288;1302;22020;-62
2022/12/26 05:55:29;;;;;;;10.60;7.90;;;;;;;8.52;63.86;101553.31;106394;1303;21969;-62
2022/12/26 05:57:55;;;;;;;12.00;7.30;;;;;;;8.58;64.00;101548.52;106116;1303;21966;-61
2022/12/26 06:00:21;;;;;;;14.10;8.00;;;;;;;8.63;63.97;101544.54;106373;1301;21977;-65
2022/12/26 06:02:47;;;;;;;14.10;12.10;;;;;;;8.64;63.40;101548.74;106296;1300;21965;-62
2022/12/26 06:05:12;;;;;;;10.20;8.00;;;;;;;8.55;62.95;101563.15;106512;1301;21959;-62
2022/12/26 06:07:38;;;;;;;10.30;7.20;;;;;;;8.43;62.60;101565.91;106294;1296;21967;-62
2022/12/26 06:10:05;;;;;;;11.60;7.00;;;;;;;8.33;62.73;101561.39;106371;1301;21963;-65
2022/12/26 06:12:32;;;;;;;10.20;6.80;;;;;;;8.34;63.41;101558.95;106491;1300;21974;-62
2022/12/26 06:14:58;;;;;;;9.50;6.70;;;;;;;8.38;63.67;101556.91;106512;1300;21960;-66
2022/12/26 06:17:24;;;;;;;9.80;6.40;;;;;;;8.43;63.70;101559.95;106467;1301;21968;-63
2022/12/26 06:19:50;;;;;;;11.40;6.40;;;;;;;8.53;64.07;101563.45;106505;1301;21953;-66
2022/12/26 06:22:16;;;;;;;8.90;6.10;;;;;;;8.58;64.36;101562.14;106386;1301;21973;-66
2022/12/26 06:24:42;;;;;;;10.70;7.30;;;;;;;8.59;64.60;101561.09;106263;1303;21958;-66
2022/12/26 06:27:08;;;;;;;11.00;6.80;;;;;;;8.62;64.55;101563.77;106356;1300;21964;-66
2022/12/26 06:29:33;;;;;;;11.30;7.00;;;;;;;8.71;64.69;101559.34;106416;1300;21966;-61
2022/12/26 06:31:59;;;;;;;8.80;6.60;;;;;;;8.74;64.62;101558.35;106500;1300;21953;-61
2022/12/26 06:34:26;;;;;;;10.80;6.10;;;;;;;8.78;64.57;101558.58;106373;1300;21954;-64
2022/12/26 06:36:54;;;;;;;9.50;5.70;;;;;;;8.78;64.52;101568.39;106411;1301;21973;-66
2022/12/26 06:39:23;;;;;;;11.40;6.40;;;;;;;8.75;64.20;101575.52;106279;1303;21964;-61
2022/12/26 06:41:49;;;;;;;9.90;6.00;;;;;;;8.75;64.38;101576.73;106298;1301;21956;-66
2022/12/26 06:44:14;;;;;;;9.30;5.80;;;;;;;8.79;64.59;101573.98;106371;1298;21971;-67
2022/12/26 06:46:44;;;;;;;9.40;5.90;;;;;;;8.90;64.59;101567.48;106386;1300;21997;-62
2022/12/26 06:49:10;;;;;;;8.60;6.20;;;;;;;8.96;64.08;101563.55;106435;1301;22002;-67
2022/12/26 06:51:36;;;;;;;7.20;5.00;;;;;;;8.97;64.05;101566.01;106389;1299;21972;-67
2022/12/26 06:54:02;;;;;;;7.50;5.40;;;;;;;9.01;64.03;101568.86;106467;1301;21961;-67
2022/12/26 06:56:28;;;;;;;12.30;7.70;;;;;;;9.06;64.15;101568.75;106335;1303;21962;-61
2022/12/26 06:58:54;;;;;;;13.70;8.20;;;;;;;9.11;64.23;101566.71;106334;1300;21964;-67
2022/12/26 07:01:21;;;;;;;11.60;7.50;;;;;;;9.19;64.36;101564.20;106328;1292;21965;-61
2022/12/26 07:03:46;;;;;;;11.10;7.90;;;;;;;9.23;64.30;101563.73;106349;1299;21962;-67
2022/12/26 07:06:26;;;;;;;16.50;11.70;;;;;;;9.26;64.23;101566.39;106404;1298;21977;-62
2022/12/26 07:08:53;;;;;;;84.40;36.10;;;;;;;9.30;64.19;101569.21;106334;1303;21947;-67
2022/12/26 07:11:21;;;;;;;38.50;20.60;;;;;;;9.32;64.10;101575.20;106576;1301;23610;-67
2022/12/26 07:13:48;;;;;;;23.60;13.70;;;;;;;9.35;64.17;101574.89;106445;1300;21955;-61
2022/12/26 07:16:13;;;;;;;17.80;12.00;;;;;;;9.41;64.54;101573.40;106298;1300;22009;-62
2022/12/26 07:18:39;;;;;;;36.90;21.90;;;;;;;9.50;64.77;101568.76;106509;1301;21964;-61
2022/12/26 07:21:10;;;;;;;40.90;24.10;;;;;;;9.58;64.45;101572.16;106305;1301;21953;-67
2022/12/26 07:23:35;;;;;;;31.10;17.10;;;;;;;9.56;63.97;101576.35;106387;1303;21967;-61
2022/12/26 07:26:02;;;;;;;26.70;16.40;;;;;;;9.58;64.20;101576.02;106464;1299;21976;-67
2022/12/26 07:28:29;;;;;;;28.30;18.20;;;;;;;9.66;64.81;101567.36;106455;1289;21970;-60
2022/12/26 07:30:56;;;;;;;22.50;14.00;;;;;;;9.78;65.10;101563.09;106244;1288;21962;-68
2022/12/26 07:33:22;;;;;;;14.80;10.30;;;;;;;9.94;65.36;101563.95;106407;1301;21969;-67
2022/12/26 07:35:50;;;;;;;13.40;8.40;;;;;;;10.00;65.18;101564.17;106452;1301;21959;-66
2022/12/26 07:38:16;;;;;;;15.90;9.50;;;;;;;10.08;65.15;101561.98;106231;1292;21971;-61
2022/12/26 10:27:49;;;;;;;8.30;5.70;;;;;;;8.91;97.30;101477.14;106848;1291;548624;-58
2022/12/26 10:30:29;;;;;;;7.80;5.00;;;;;;;11.99;83.98;101471.79;107084;1293;21940;-58
2022/12/26 10:32:59;;;;;;;7.50;4.80;;;;;;;12.46;79.62;101474.20;106989;1286;21945;-58
2022/12/26 10:35:32;;;;;;;6.40;4.10;;;;;;;12.70;77.81;101471.84;107121;1291;22010;-59
2022/12/26 10:38:25;;;;;;;7.30;4.40;;;;;;;12.85;76.62;101474.05;107069;1294;21949;-59
2022/12/26 10:40:53;;;;;;;6.60;3.90;;;;;;;13.01;75.51;101468.52;107016;1292;220947;-58
2022/12/26 10:43:21;;;;;;;7.80;4.40;;;;;;;13.12;74.83;101468.11;107082;1292;22213;-58
2022/12/26 10:46:08;;;;;;;7.60;4.60;;;;;;;13.24;74.32;101460.66;107444;1291;21939;-58
2022/12/26 10:48:34;;;;;;;7.10;4.80;;;;;;;13.34;74.08;101470.11;107284;1292;21949;-58
2022/12/26 10:51:00;;;;;;;8.00;4.30;;;;;;;13.46;73.96;101474.98;107132;1293;21983;-58
2022/12/26 10:53:26;;;;;;;6.80;4.50;;;;;;;13.59;73.75;101469.45;107284;1291;21939;-58
2022/12/26 10:55:56;;;;;;;8.40;4.80;;;;;;;13.69;73.44;101473.95;107102;1293;21949;-58
2022/12/26 10:58:29;;;;;;;7.20;4.30;;;;;;;13.80;73.36;101480.21;107279;1294;21942;-58
2022/12/26 11:00:55;;;;;;;7.10;4.30;;;;;;;13.93;73.41;101471.11;107233;1294;21931;-58
2022/12/26 11:03:21;;;;;;;7.20;4.20;;;;;;;14.05;72.63;101453.54;107223;1294;21950;-58
2022/12/26 11:05:47;;;;;;;9.60;4.80;;;;;;;14.12;72.07;101441.98;107087;1294;21989;-58
2022/12/26 11:08:23;;;;;;;7.80;4.90;;;;;;;14.17;71.88;101447.41;106475;1292;1002625;-58
2022/12/26 11:11:04;;;;;;;7.40;4.40;;;;;;;14.21;71.61;101452.84;107218;1292;21951;-58
2022/12/26 11:13:34;;;;;;;8.60;4.60;;;;;;;14.28;71.59;101458.25;107304;1278;21947;-59
2022/12/26 11:16:00;;;;;;;7.90;4.30;;;;;;;14.37;71.45;101465.73;107314;1291;22004;-58
2022/12/26 11:18:35;;;;;;;6.90;4.70;;;;;;;14.48;71.70;101456.09;107367;1291;21947;-58
2022/12/26 11:21:31;;;;;;;6.40;4.30;;;;;;;14.58;71.46;101448.38;107332;1291;21948;-58
2022/12/26 11:24:06;;;;;;;7.00;5.00;;;;;;;14.65;70.83;101430.80;107175;1291;21924;-58
2022/12/26 11:26:31;;;;;;;6.90;4.70;;;;;;;14.68;70.54;101434.30;107348;1291;21989;-58
2022/12/26 11:29:10;;;;;;;5.90;4.10;;;;;;;14.65;68.69;101443.00;107340;1289;21946;-58
2022/12/26 11:31:36;;;;;;;7.40;4.50;;;;;;;14.55;66.90;101451.77;107244;1292;21945;-59
2022/12/26 11:34:09;;;;;;;6.80;4.60;;;;;;;14.37;65.06;101453.73;102848;1291;1003205;-58
2022/12/26 11:36:35;;;;;;;7.10;4.60;;;;;;;14.17;65.66;101454.64;107227;1293;22009;-58
2022/12/26 11:39:06;;;;;;;7.10;4.70;;;;;;;14.16;67.22;101454.30;107093;1293;21962;-58
2022/12/26 11:41:37;;;;;;;13.30;7.50;;;;;;;14.19;67.38;101458.33;107237;1289;21940;-59
2022/12/26 11:44:12;;;;;;;9.30;5.70;;;;;;;14.12;65.47;101467.94;107195;1286;21955;-58
2022/12/26 11:46:48;;;;;;;7.00;4.40;;;;;;;13.92;64.33;101465.30;107127;1293;21989;-58
2022/12/26 11:49:37;;;;;;;7.00;4.70;;;;;;;13.73;64.37;101454.53;107219;1285;21944;-58
2022/12/26 11:52:42;;;;;;;6.60;4.50;;;;;;;13.64;64.89;101453.01;106566;1291;1002608;-58
2022/12/26 11:55:23;;;;;;;9.20;5.00;;;;;;;13.51;64.77;101465.80;107338;1291;21960;-59
2022/12/26 11:57:59;;;;;;;8.70;4.80;;;;;;;13.35;64.66;101465.88;107192;1291;21948;-58
2022/12/26 12:00:25;;;;;;;6.70;4.90;;;;;;;13.29;65.28;101463.27;107230;1293;21950;-58
2022/12/26 12:02:52;;;;;;;8.30;5.20;;;;;;;13.32;65.69;101467.65;107283;1293;21957;-58
2022/12/26 12:05:59;;;;;;;6.50;4.20;;;;;;;13.31;65.28;101469.42;107442;1291;21956;-58
2022/12/26 12:08:46;;;;;;;8.20;4.50;;;;;;;13.27;65.16;101468.91;107123;1288;21940;-58
2022/12/26 12:11:18;;;;;;;13.60;6.80;;;;;;;13.23;64.89;101470.89;107352;1292;21953;-60
2022/12/26 12:13:54;;;;;;;10.90;5.50;;;;;;;12.98;65.36;101480.35;107258;1291;21946;-59
2022/12/26 12:16:39;;;;;;;12.70;5.30;;;;;;;12.86;66.51;101487.96;107212;1291;21956;-60
2022/12/26 12:19:32;;;;;;;12.00;5.90;;;;;;;12.83;66.53;101492.91;107376;1290;21958;-58
2022/12/26 12:21:58;;;;;;;10.10;5.00;;;;;;;12.74;65.61;101490.31;107263;1291;21954;-59
2022/12/26 12:24:39;;;;;;;16.90;6.20;;;;;;;12.62;65.03;101495.63;107233;1290;21953;-58
2022/12/26 12:27:25;;;;;;;11.20;6.20;;;;;;;12.57;65.44;101503.59;107069;1293;21954;-58
2022/12/26 12:29:57;;;;;;;10.90;6.10;;;;;;;12.58;65.97;101506.73;107353;1291;21961;-58
2022/12/26 12:32:38;;;;;;;14.30;6.70;;;;;;;12.62;66.37;101510.59;107221;1288;21959;-59
2022/12/26 12:35:22;;;;;;;13.40;6.20;;;;;;;12.59;65.29;101512.54;107246;1292;22730;-58
2022/12/26 12:38:23;;;;;;;32.60;10.00;;;;;;;12.52;64.99;101509.40;107264;1291;21961;-58
2022/12/26 12:40:58;;;;;;;18.30;7.60;;;;;;;12.46;65.22;101509.77;107290;1289;21947;-58
2022/12/26 12:43:50;;;;;;;44.20;16.40;;;;;;;12.43;64.70;101506.06;107225;1292;21949;-58
2022/12/26 12:46:21;;;;;;;25.00;9.40;;;;;;;12.34;64.21;101505.21;107136;1293;23656;-58
2022/12/26 12:49:01;;;;;;;12.50;6.20;;;;;;;12.29;64.70;101501.16;107221;1292;21944;-58
2022/12/26 12:51:39;;;;;;;16.10;7.30;;;;;;;12.30;65.26;101496.59;107243;1292;21929;-58
2022/12/26 12:54:15;;;;;;;17.40;7.40;;;;;;;12.43;65.65;101500.44;107254;1291;21954;-59
2022/12/26 12:57:12;;;;;;;12.20;6.30;;;;;;;12.45;64.51;101504.30;107313;1291;21953;-58
2022/12/26 13:00:12;;;;;;;9.90;6.20;;;;;;;12.28;64.21;101505.20;107279;1293;21948;-58
2022/12/26 13:02:58;;;;;;;11.90;6.20;;;;;;;12.22;64.42;101506.27;107273;1293;21979;-59
2022/12/26 13:05:42;;;;;;;11.30;5.00;;;;;;;12.22;64.55;101505.92;107166;1293;21959;-58
2022/12/26 13:08:11;;;;;;;11.60;5.70;;;;;;;12.23;64.92;101503.45;107334;1291;21985;-58
2022/12/26 13:10:41;;;;;;;9.30;5.90;;;;;;;12.27;65.24;101508.19;107212;1288;21973;-58
2022/12/26 13:13:14;;;;;;;9.30;5.60;;;;;;;12.30;65.50;101512.08;107240;1292;21944;-58
2022/12/26 13:15:46;;;;;;;16.00;7.30;;;;;;;12.36;65.99;101500.96;107367;1288;21946;-58
2022/12/26 13:18:16;;;;;;;11.00;5.40;;;;;;;12.45;66.54;101488.98;107484;1292;21934;-58
2022/12/26 13:20:45;;;;;;;14.70;5.90;;;;;;;12.51;66.31;101485.10;107457;1288;21945;-58
2022/12/26 13:26:34;;;;;;;15.30;6.20;;;;;;;12.60;66.52;101480.31;107362;1286;21952;-58
2022/12/26 13:29:08;;;;;;;21.10;7.70;;;;;;;12.63;66.63;101476.78;107290;1291;22009;-58
2022/12/26 13:31:34;;;;;;;17.60;7.70;;;;;;;12.67;66.72;101474.48;107168;1293;21945;-58
2022/12/26 13:34:01;;;;;;;18.10;8.10;;;;;;;12.70;66.62;101466.02;107288;1278;21950;-58
2022/12/26 13:36:57;;;;;;;19.80;7.20;;;;;;;12.70;66.83;101455.29;107210;1291;21939;-57
2022/12/26 13:39:26;;;;;;;21.60;6.90;;;;;;;12.70;66.87;101459.52;107135;1293;21910;-59
2022/12/26 13:44:38;;;;;;;33.60;11.20;;;;;;;12.85;66.32;101472.65;107171;1293;21958;-58
2022/12/26 13:47:04;;;;;;;21.00;10.40;;;;;;;12.90;66.18;101469.45;107052;1293;21948;-59
2022/12/26 13:49:40;;;;;;;47.40;26.70;;;;;;;12.94;66.30;101474.73;107235;1292;21958;-59
2022/12/26 13:52:09;;;;;;;27.10;12.20;;;;;;;12.97;66.41;101474.54;107224;1289;21948;-59
2022/12/26 13:54:35;;;;;;;25.10;13.20;;;;;;;12.98;66.18;101472.25;107340;1291;21950;-58
2022/12/26 13:57:28;;;;;;;18.70;8.20;;;;;;;12.99;65.96;101466.08;107287;1292;21936;-58
2022/12/26 14:00:06;;;;;;;20.30;9.80;;;;;;;12.97;65.75;101460.27;107156;1292;21996;-58
2022/12/26 14:02:57;;;;;;;22.90;8.90;;;;;;;12.97;65.63;101463.63;107201;1291;21991;-58
2022/12/26 14:05:36;;;;;;;24.60;8.70;;;;;;;12.94;65.60;101455.17;107192;1291;21947;-59
2022/12/26 14:08:10;;;;;;;19.40;7.80;;;;;;;12.91;65.63;101447.27;107310;1291;21954;-58
2022/12/26 14:10:55;;;;;;;19.50;7.50;;;;;;;12.86;65.62;101440.77;107353;1283;21966;-58
2022/12/26 14:13:34;;;;;;;15.80;7.00;;;;;;;12.80;65.55;101451.36;107252;1282;22452;-58
2022/12/26 14:16:07;;;;;;;19.90;7.40;;;;;;;12.73;65.50;101458.79;107189;1291;21946;-59
2022/12/26 14:18:38;;;;;;;17.30;6.20;;;;;;;12.76;65.31;101461.95;107205;1292;21966;-58
2022/12/26 14:21:39;;;;;;;17.30;5.80;;;;;;;12.84;64.60;101467.73;107180;1292;21954;-58
2022/12/26 14:24:19;;;;;;;16.30;5.40;;;;;;;12.81;64.67;101476.38;106743;1297;21943;-58
2022/12/26 14:27:08;;;;;;;11.80;5.00;;;;;;;12.79;64.51;101466.88;107161;1291;21939;-58
2022/12/26 14:29:42;;;;;;;18.90;5.30;;;;;;;12.78;64.23;101444.34;107359;1291;21943;-59
2022/12/26 14:32:39;;;;;;;6.10;3.50;;;;;;;12.72;63.55;101432.03;107349;1279;21950;-58
2022/12/26 14:35:40;;;;;;;6.10;3.70;;;;;;;12.53;62.27;101425.77;107267;1293;21965;-57
2022/12/26 14:38:28;;;;;;;9.70;3.60;;;;;;;12.28;61.73;101430.06;106906;1291;21944;-58
2022/12/26 14:41:02;;;;;;;8.30;4.60;;;;;;;12.11;61.65;101420.08;107232;1289;21934;-57
2022/12/26 14:43:31;;;;;;;16.00;5.00;;;;;;;11.98;61.99;101418.66;107212;1290;21951;-57
2022/12/26 14:45:58;;;;;;;14.00;4.50;;;;;;;11.91;61.90;101425.19;107228;1292;21966;-57
2022/12/26 14:48:27;;;;;;;12.80;4.50;;;;;;;11.81;61.82;101432.21;107232;1291;21952;-57
2022/12/26 14:51:14;;;;;;;9.90;4.20;;;;;;;11.72;61.73;101429.59;107222;1292;23116;-57
2022/12/26 14:53:40;;;;;;;10.60;4.70;;;;;;;11.61;61.55;101427.82;107191;1277;21956;-58
2022/12/26 14:56:14;;;;;;;13.00;4.40;;;;;;;11.54;61.92;101436.42;107150;1289;21949;-57
2022/12/26 14:59:19;;;;;;;10.60;4.20;;;;;;;11.55;62.55;101446.80;107184;1291;23481;-57
2022/12/26 15:01:47;;;;;;;9.70;4.20;;;;;;;11.61;63.08;101453.14;107232;1291;21938;-57
2022/12/26 15:04:21;;;;;;;14.30;4.30;;;;;;;11.67;63.39;101453.85;107407;1291;22120;-57
2022/12/26 15:06:53;;;;;;;20.30;11.40;;;;;;;11.73;63.72;101449.98;107288;1288;21944;-57
2022/12/26 15:09:46;;;;;;;11.90;5.40;;;;;;;11.83;64.09;101443.83;107325;1291;21947;-57
2022/12/26 15:12:28;;;;;;;11.90;5.20;;;;;;;11.92;63.96;101438.55;107190;1292;21949;-57
2022/12/26 15:15:13;;;;;;;9.50;4.80;;;;;;;11.93;63.46;101427.11;107253;1293;21956;-57
2022/12/26 15:18:16;;;;;;;12.90;5.40;;;;;;;11.83;62.90;101417.80;107236;1287;21947;-58
2022/12/26 15:21:19;;;;;;;9.90;4.30;;;;;;;11.72;62.70;101416.05;107357;1291;21940;-57
2022/12/26 15:24:16;;;;;;;7.90;4.20;;;;;;;11.65;62.33;101423.08;107361;1289;22099;-57
2022/12/26 15:26:53;;;;;;;7.60;4.60;;;;;;;11.52;61.88;101422.89;107280;1291;22393;-58
2022/12/26 15:29:43;;;;;;;8.30;5.30;;;;;;;11.40;61.52;101415.69;107374;1293;23061;-57
2022/12/26 15:32:18;;;;;;;7.80;4.90;;;;;;;11.25;61.35;101417.60;107196;1293;21949;-57
2022/12/26 15:35:11;;;;;;;9.30;5.30;;;;;;;11.15;61.55;101419.34;107200;1292;21952;-57
2022/12/26 15:37:59;;;;;;;9.30;4.50;;;;;;;11.08;61.62;101410.89;107269;1291;21955;-58
2022/12/26 15:40:35;;;;;;;9.40;5.50;;;;;;;11.03;61.54;101407.38;107216;1293;21955;-58
2022/12/26 15:43:22;;;;;;;17.90;11.10;;;;;;;11.00;61.92;101410.37;107234;1293;21949;-58
2022/12/26 15:46:01;;;;;;;70.60;38.10;;;;;;;11.02;61.87;101402.64;107189;1277;21949;-58
2022/12/26 15:48:43;;;;;;;95.00;49.50;;;;;;;10.97;61.49;101399.11;107281;1291;21943;-57
2022/12/26 15:51:21;;;;;;;86.80;47.30;;;;;;;10.92;61.50;101400.67;107237;1284;21977;-58
2022/12/26 15:53:46;;;;;;;70.60;39.10;;;;;;;10.87;61.42;101410.30;107092;1289;21954;-57
2022/12/26 19:06:03;;;;;;;27.90;16.00;;;;;;;7.11;98.56;101323.38;105402;1296;544195;-67
2022/12/26 19:08:29;;;;;;;34.70;22.40;;;;;;;8.49;85.69;101313.58;105491;1311;21985;-66
2022/12/26 19:10:55;;;;;;;29.90;20.60;;;;;;;8.94;79.45;101313.02;105338;1304;21974;-66
2022/12/26 19:13:21;;;;;;;22.70;15.40;;;;;;;9.21;77.06;101312.03;105453;1309;21954;-66
2022/12/26 19:15:48;;;;;;;20.90;13.90;;;;;;;9.38;75.58;101304.11;105553;1302;22010;-67
2022/12/26 19:18:14;;;;;;;21.70;13.40;;;;;;;9.50;74.26;101304.02;105544;1309;22028;-67
2022/12/26 19:20:42;;;;;;;21.10;13.50;;;;;;;9.58;73.49;101298.99;105526;1309;209917;-67
2022/12/26 19:23:09;;;;;;;20.10;13.80;;;;;;;9.69;72.86;101299.42;105728;1304;21967;-67
2022/12/26 19:25:36;;;;;;;28.60;17.00;;;;;;;9.74;72.55;101296.11;105606;1306;21968;-67
2022/12/26 19:28:01;;;;;;;23.50;17.00;;;;;;;9.86;72.05;101293.73;105584;1306;22025;-67
2022/12/26 19:30:28;;;;;;;19.40;14.90;;;;;;;9.89;71.57;101282.70;102670;1304;1006124;-67
2022/12/26 19:32:53;;;;;;;35.40;28.30;;;;;;;9.96;71.11;101283.43;105585;1306;22126;-67
2022/12/26 19:35:20;;;;;;;23.80;18.00;;;;;;;9.99;70.96;101284.15;105589;1298;21963;-67
2022/12/26 19:37:46;;;;;;;20.70;14.80;;;;;;;10.02;70.64;101284.86;105617;1306;21974;-67
2022/12/26 19:40:16;;;;;;;22.00;16.30;;;;;;;10.06;70.61;101276.98;104828;1306;1003464;-60
2022/12/26 19:42:42;;;;;;;20.00;13.90;;;;;;;10.12;70.11;101277.37;107754;1306;22399;-67
2022/12/26 19:45:09;;;;;;;77.80;60.30;;;;;;;10.18;69.87;101283.70;105587;1306;24332;-67
2022/12/26 19:47:34;;;;;;;58.80;48.50;;;;;;;10.25;69.62;101284.42;105634;1306;21980;-67
2022/12/26 19:50:01;;;;;;;32.70;26.30;;;;;;;10.29;69.61;101271.10;104854;1306;1002745;-60
2022/12/26 19:52:30;;;;;;;37.10;27.60;;;;;;;10.32;69.36;101268.66;105741;1305;21982;-60